createdAt,value
2018-03-14T00:00:28.414Z,4.87
2018-03-14T00:02:56.618Z,6.18
2018-03-14T00:05:24.847Z,4.87
2018-03-14T00:07:54.146Z,3.78
2018-03-14T00:10:22.403Z,3.37
2018-03-14T00:12:50.604Z,8.65
2018-03-14T00:15:19.558Z,3.97
2018-03-14T00:17:47.889Z,5.50
2018-03-14T00:20:16.119Z,6.30
2018-03-14T00:25:40.181Z,3.83
2018-03-14T00:30:49.607Z,4.95
2018-03-14T00:33:18.088Z,10.45
2018-03-14T00:35:47.680Z,4.85
2018-03-14T00:38:17.902Z,3.97
2018-03-14T00:40:46.966Z,3.80
2018-03-14T00:43:16.949Z,3.50
2018-03-14T00:45:45.183Z,3.60
2018-03-14T00:48:25.470Z,3.40
2018-03-14T00:50:53.866Z,4.07
2018-03-14T00:53:22.249Z,3.47
2018-03-14T00:55:50.578Z,4.85
2018-03-14T00:58:18.782Z,5.20
2018-03-14T01:00:47.705Z,3.55
2018-03-14T01:03:15.974Z,3.80
2018-03-14T01:05:44.127Z,4.47
2018-03-14T01:08:12.291Z,4.45
2018-03-14T01:10:41.259Z,3.40
2018-03-14T01:13:09.435Z,4.72
2018-03-14T01:15:37.608Z,4.72
2018-03-14T01:18:05.893Z,4.72
2018-03-14T01:20:34.111Z,4.32
2018-03-14T01:23:02.339Z,5.15
2018-03-14T01:25:31.058Z,7.25
2018-03-14T01:27:59.296Z,4.30
2018-03-14T01:30:27.489Z,5.43
2018-03-14T01:32:55.654Z,3.70
2018-03-14T01:35:23.848Z,4.40
2018-03-14T01:37:52.605Z,4.80
2018-03-14T01:40:20.878Z,6.37
2018-03-14T01:42:49.105Z,4.30
2018-03-14T01:45:17.285Z,6.10
2018-03-14T01:47:46.418Z,4.60
2018-03-14T01:50:20.872Z,6.07
2018-03-14T01:52:49.114Z,3.87
2018-03-14T01:55:17.311Z,3.62
2018-03-14T01:57:46.244Z,5.70
2018-03-14T02:00:14.614Z,4.07
2018-03-14T02:02:42.838Z,5.62
2018-03-14T02:05:11.833Z,4.50
2018-03-14T02:07:40.508Z,4.93
2018-03-14T02:10:08.704Z,4.68
2018-03-14T02:12:37.641Z,5.70
2018-03-14T02:15:05.921Z,4.18
2018-03-14T02:17:34.927Z,3.70
2018-03-14T02:20:03.156Z,3.45
2018-03-14T02:22:31.364Z,4.20
2018-03-14T02:24:59.552Z,4.07
2018-03-14T02:27:27.742Z,4.95
2018-03-14T02:29:55.923Z,3.20
2018-03-14T02:32:24.861Z,5.20
2018-03-14T02:34:53.037Z,4.10
2018-03-14T02:37:21.270Z,4.40
2018-03-14T02:39:50.311Z,3.92
2018-03-14T02:42:19.323Z,4.25
2018-03-14T02:44:47.514Z,3.08
2018-03-14T02:47:15.832Z,3.60
2018-03-14T02:49:44.069Z,3.30
2018-03-14T02:52:12.245Z,5.10
2018-03-14T02:54:40.398Z,3.30
2018-03-14T02:57:08.558Z,4.12
2018-03-14T02:59:36.819Z,6.68
2018-03-14T03:02:05.014Z,3.17
2018-03-14T03:04:33.298Z,4.25
2018-03-14T03:07:01.459Z,2.95
2018-03-14T03:09:29.639Z,3.92
2018-03-14T03:11:57.836Z,5.20
2018-03-14T03:14:26.786Z,3.70
2018-03-14T03:16:55.002Z,4.65
2018-03-14T03:19:24.000Z,3.97
2018-03-14T03:21:52.933Z,3.45
2018-03-14T03:24:21.077Z,3.90
2018-03-14T03:26:49.303Z,3.58
2018-03-14T03:29:17.511Z,4.78
2018-03-14T03:31:46.466Z,3.03
2018-03-14T03:34:14.613Z,3.70
2018-03-14T03:36:43.678Z,3.12
2018-03-14T03:39:12.614Z,3.75
2018-03-14T03:41:41.445Z,3.92
2018-03-14T03:44:12.086Z,4.97
2018-03-14T03:46:40.255Z,3.30
2018-03-14T03:49:09.188Z,3.42
2018-03-14T03:51:37.356Z,3.60
2018-03-14T03:54:05.595Z,3.35
2018-03-14T03:56:34.554Z,3.30
2018-03-14T03:59:02.757Z,2.72
2018-03-14T04:01:31.709Z,5.10
2018-03-14T04:03:59.932Z,3.47
2018-03-14T04:06:28.159Z,3.62
2018-03-14T04:08:56.333Z,3.22
2018-03-14T04:11:24.491Z,3.65
2018-03-14T04:13:52.735Z,3.72
2018-03-14T04:16:20.963Z,3.42
2018-03-14T04:18:49.123Z,3.53
2018-03-14T04:21:17.298Z,3.05
2018-03-14T04:23:45.515Z,3.45
2018-03-14T04:26:14.721Z,3.17
2018-03-14T04:28:43.152Z,4.50
2018-03-14T04:31:11.368Z,3.33
2018-03-14T04:33:40.275Z,3.87
2018-03-14T04:36:08.479Z,3.55
2018-03-14T04:38:37.471Z,3.22
2018-03-14T04:41:05.810Z,3.92
2018-03-14T04:43:34.007Z,3.87
2018-03-14T04:46:02.226Z,3.40
2018-03-14T04:48:30.399Z,4.25
2018-03-14T04:50:58.587Z,3.47
2018-03-14T04:53:27.531Z,3.85
2018-03-14T04:55:55.774Z,3.12
2018-03-14T04:58:23.949Z,2.92
2018-03-14T05:00:52.116Z,3.30
2018-03-14T05:03:20.291Z,2.83
2018-03-14T05:05:48.513Z,3.65
2018-03-14T05:08:16.734Z,2.80
2018-03-14T05:10:45.138Z,3.17
2018-03-14T05:13:13.326Z,2.90
2018-03-14T05:15:41.522Z,5.10
2018-03-14T05:18:09.725Z,3.17
2018-03-14T05:20:38.666Z,3.10
2018-03-14T05:23:06.818Z,2.53
2018-03-14T05:25:35.403Z,3.00
2018-03-14T05:28:24.512Z,2.50
2018-03-14T05:31:26.256Z,3.17
2018-03-14T05:36:55.387Z,4.00
2018-03-14T05:39:24.840Z,4.10
2018-03-14T05:42:01.104Z,2.75
2018-03-14T05:47:07.307Z,4.68
2018-03-14T05:49:35.588Z,3.87
2018-03-14T05:52:05.157Z,3.80
2018-03-14T05:54:34.776Z,4.97
2018-03-14T05:57:04.689Z,3.40
2018-03-14T05:59:32.897Z,4.30
2018-03-14T06:02:01.167Z,3.97
2018-03-14T06:04:32.383Z,10.13
2018-03-14T06:07:00.570Z,4.47
2018-03-14T06:09:28.812Z,4.53
2018-03-14T06:11:56.992Z,4.00
2018-03-14T06:14:25.186Z,3.72
2018-03-14T06:16:53.354Z,5.28
2018-03-14T06:19:21.623Z,5.62
2018-03-14T06:21:49.851Z,4.60
2018-03-14T06:24:18.917Z,5.55
2018-03-14T06:26:47.101Z,3.45
2018-03-14T06:29:15.247Z,4.40
2018-03-14T06:31:43.530Z,6.30
2018-03-14T06:34:11.798Z,7.97
2018-03-14T06:36:40.015Z,5.20
2018-03-14T06:39:08.955Z,4.10
2018-03-14T06:41:37.157Z,4.60
2018-03-14T06:44:05.372Z,4.32
2018-03-14T06:46:33.526Z,5.37
2018-03-14T06:49:02.473Z,4.55
2018-03-14T06:51:30.661Z,3.97
2018-03-14T06:54:00.164Z,3.67
2018-03-14T06:56:30.100Z,4.55
2018-03-14T07:02:43.299Z,4.53
2018-03-14T07:05:29.190Z,6.18
2018-03-14T07:07:57.367Z,3.47
2018-03-14T07:10:25.545Z,4.15
2018-03-14T07:12:53.714Z,4.53
2018-03-14T07:15:21.870Z,4.10
2018-03-14T07:17:50.066Z,4.40
2018-03-14T07:20:18.267Z,6.05
2018-03-14T07:22:47.214Z,4.80
2018-03-14T07:25:15.479Z,5.78
2018-03-14T07:27:43.652Z,5.05
2018-03-14T07:30:11.950Z,5.65
2018-03-14T07:32:40.209Z,6.05
2018-03-14T07:35:08.409Z,4.68
2018-03-14T07:37:36.682Z,5.50
2018-03-14T07:40:04.887Z,4.43
2018-03-14T07:42:33.823Z,4.50
2018-03-14T07:45:02.016Z,4.85
2018-03-14T07:47:30.735Z,4.78
2018-03-14T07:50:01.171Z,4.78
2018-03-14T07:52:29.469Z,5.40
2018-03-14T07:54:57.759Z,5.40
2018-03-14T07:57:25.995Z,4.57
2018-03-14T07:59:54.170Z,6.55
2018-03-14T08:02:23.112Z,7.12
2018-03-14T08:04:52.205Z,5.18
2018-03-14T08:07:20.364Z,4.82
2018-03-14T08:09:48.569Z,5.70
2018-03-14T08:12:16.742Z,5.10
2018-03-14T08:14:45.012Z,5.72
2018-03-14T08:17:13.173Z,6.70
2018-03-14T08:19:41.363Z,4.15
2018-03-14T08:22:09.506Z,4.97
2018-03-14T08:24:38.430Z,5.30
2018-03-14T08:27:06.582Z,5.93
2018-03-14T08:29:34.751Z,4.90
2018-03-14T08:32:03.879Z,5.22
2018-03-14T08:34:32.108Z,5.53
2018-03-14T08:37:00.946Z,5.70
2018-03-14T08:39:29.122Z,4.95
2018-03-14T08:41:57.425Z,4.20
2018-03-14T08:44:25.600Z,4.65
2018-03-14T08:46:53.883Z,4.95
2018-03-14T08:49:22.142Z,5.22
2018-03-14T08:51:50.404Z,4.93
2018-03-14T08:54:19.490Z,3.92
2018-03-14T08:56:47.664Z,4.00
2018-03-14T08:59:15.863Z,3.72
2018-03-14T09:01:44.105Z,4.45
2018-03-14T09:06:45.725Z,4.40
2018-03-14T09:09:13.951Z,5.75
2018-03-14T09:11:42.126Z,3.33
2018-03-14T09:14:11.878Z,4.07
2018-03-14T09:16:41.062Z,4.07
2018-03-14T09:19:09.337Z,3.92
2018-03-14T09:21:44.095Z,4.05
2018-03-14T09:24:12.517Z,4.12
2018-03-14T09:26:41.464Z,4.05
2018-03-14T09:29:10.471Z,3.12
2018-03-14T09:31:38.675Z,2.70
2018-03-14T09:34:07.600Z,3.40
2018-03-14T09:36:35.817Z,4.43
2018-03-14T09:39:04.089Z,5.43
2018-03-14T09:41:32.638Z,2.87
2018-03-14T09:44:01.587Z,3.20
2018-03-14T09:46:29.813Z,2.60
2018-03-14T09:48:58.068Z,3.28
2018-03-14T09:51:26.281Z,3.72
2018-03-14T09:53:54.503Z,3.10
2018-03-14T09:56:23.511Z,5.97
2018-03-14T09:58:52.566Z,3.47
2018-03-14T10:01:22.433Z,9.98
2018-03-14T10:06:54.008Z,3.53
2018-03-14T10:09:22.277Z,2.40
2018-03-14T10:11:50.515Z,4.15
2018-03-14T10:14:18.685Z,2.72
2018-03-14T10:16:47.928Z,2.10
2018-03-14T10:19:16.897Z,2.30
2018-03-14T10:21:45.090Z,3.15
2018-03-14T10:24:18.178Z,6.93
2018-03-14T10:26:47.568Z,4.82
2018-03-14T10:29:16.099Z,5.03
2018-03-14T10:32:01.021Z,3.45
2018-03-14T10:34:45.420Z,2.40
2018-03-14T10:37:13.829Z,2.30
2018-03-14T10:42:46.435Z,2.70
2018-03-14T10:45:18.581Z,3.05
2018-03-14T10:50:33.965Z,2.50
2018-03-14T10:53:10.612Z,2.70
2018-03-14T10:55:40.001Z,2.28
2018-03-14T10:58:08.304Z,3.20
2018-03-14T11:00:41.953Z,2.00
2018-03-14T11:03:16.434Z,2.70
2018-03-14T11:05:45.487Z,3.05
2018-03-14T11:08:14.139Z,3.95
2018-03-14T11:10:42.285Z,2.58
2018-03-14T11:13:10.506Z,3.83
2018-03-14T11:15:39.720Z,2.55
2018-03-14T11:18:07.910Z,2.10
2018-03-14T11:20:36.451Z,1.58
2018-03-14T11:23:04.687Z,2.40
2018-03-14T11:25:33.653Z,2.10
2018-03-14T11:28:02.317Z,2.72
2018-03-14T11:30:31.250Z,2.62
2018-03-14T11:32:59.448Z,2.35
2018-03-14T11:35:27.707Z,2.85
2018-03-14T11:37:58.031Z,1.67
2018-03-14T11:40:36.965Z,1.80
2018-03-14T11:49:20.509Z,1.80
2018-03-14T11:51:50.200Z,2.70
2018-03-14T11:54:41.329Z,1.98
2018-03-14T11:57:10.521Z,1.62
2018-03-14T11:59:39.013Z,1.70
2018-03-14T12:02:23.741Z,1.42
2018-03-14T12:04:51.990Z,1.98
2018-03-14T12:07:20.242Z,1.70
2018-03-14T12:09:49.227Z,2.03
2018-03-14T12:12:18.192Z,2.05
2018-03-14T12:14:46.405Z,2.35
2018-03-14T12:17:14.578Z,3.47
2018-03-14T12:19:42.836Z,3.28
2018-03-14T12:22:17.194Z,2.00
2018-03-14T12:24:45.390Z,1.92
2018-03-14T12:27:13.538Z,2.08
2018-03-14T12:29:42.592Z,2.78
2018-03-14T12:32:11.758Z,2.60
2018-03-14T12:34:39.966Z,2.42
2018-03-14T12:37:09.207Z,2.20
2018-03-14T12:39:37.519Z,2.03
2018-03-14T12:42:05.748Z,3.83
2018-03-14T12:44:36.773Z,4.28
2018-03-14T12:47:05.029Z,2.20
2018-03-14T12:49:34.107Z,2.37
2018-03-14T12:52:18.549Z,2.10
2018-03-14T12:54:53.287Z,1.95
2018-03-14T12:57:22.386Z,2.03
2018-03-14T13:00:05.836Z,2.45
2018-03-14T13:02:42.108Z,1.70
2018-03-14T13:05:10.377Z,1.75
2018-03-14T13:07:38.819Z,1.90
2018-03-14T13:10:24.942Z,2.30
2018-03-14T13:12:54.226Z,2.40
2018-03-14T13:29:07.455Z,1.95
2018-03-14T13:31:37.545Z,2.15
2018-03-14T13:34:06.036Z,4.22
2018-03-14T13:36:35.015Z,2.35
2018-03-14T13:39:04.066Z,2.05
2018-03-14T13:41:32.383Z,1.90
2018-03-14T13:44:01.290Z,2.05
2018-03-14T13:46:29.683Z,2.20
2018-03-14T13:48:57.888Z,2.15
2018-03-14T13:51:27.167Z,2.20
2018-03-14T13:53:55.501Z,2.00
2018-03-14T13:56:25.717Z,2.05
2018-03-14T14:02:02.469Z,2.00
2018-03-14T14:10:41.992Z,2.50
2018-03-14T14:13:26.239Z,3.78
2018-03-14T14:16:01.284Z,2.20
2018-03-14T14:18:30.672Z,2.30
2018-03-14T14:21:00.536Z,1.95
2018-03-14T14:23:28.837Z,2.30
2018-03-14T14:26:09.685Z,2.30
2018-03-14T14:31:54.414Z,3.42
2018-03-14T14:34:24.322Z,2.20
2018-03-14T14:36:53.606Z,2.30
2018-03-14T14:45:25.709Z,2.72
2018-03-14T14:47:55.862Z,2.40
2018-03-14T14:50:24.998Z,2.42
2018-03-14T14:52:53.368Z,2.03
2018-03-14T14:55:22.438Z,2.10
2018-03-14T14:58:00.190Z,2.55
2018-03-14T15:01:00.828Z,2.45
2018-03-14T15:03:30.220Z,2.40
2018-03-14T15:06:02.124Z,1.95
2018-03-14T15:08:39.558Z,3.25
2018-03-14T15:11:09.557Z,2.25
2018-03-14T15:13:47.184Z,2.35
2018-03-14T15:16:15.744Z,2.28
2018-03-14T15:18:44.017Z,3.40
2018-03-14T15:21:12.550Z,2.50
2018-03-14T15:23:42.659Z,2.37
2018-03-14T15:26:16.937Z,2.42
2018-03-14T15:28:45.390Z,2.40
2018-03-14T15:31:14.506Z,2.40
2018-03-14T15:33:47.436Z,5.45
2018-03-14T15:36:15.849Z,2.60
2018-03-14T15:38:44.113Z,2.47
2018-03-14T15:41:12.343Z,2.30
2018-03-14T15:43:40.531Z,9.02
2018-03-14T15:46:09.140Z,3.67
2018-03-14T15:48:37.320Z,3.40
2018-03-14T15:51:05.659Z,2.80
2018-03-14T15:53:34.047Z,4.70
2018-03-14T15:56:02.209Z,2.58
2018-03-14T15:58:31.823Z,3.78
2018-03-14T16:01:00.084Z,3.37
2018-03-14T16:03:28.340Z,3.20
2018-03-14T16:05:56.563Z,3.17
2018-03-14T16:08:24.847Z,3.50
2018-03-14T16:10:53.201Z,3.55
2018-03-14T16:13:21.436Z,3.60
2018-03-14T16:15:50.502Z,3.72
2018-03-14T16:18:18.709Z,3.72
2018-03-14T16:20:46.959Z,3.50
2018-03-14T16:23:15.915Z,3.25
2018-03-14T16:25:44.207Z,3.55
2018-03-14T16:28:12.439Z,3.00
2018-03-14T16:30:40.643Z,3.55
2018-03-14T16:33:08.893Z,3.10
2018-03-14T16:35:37.116Z,2.87
2018-03-14T16:38:06.089Z,2.90
2018-03-14T16:40:40.215Z,3.20
2018-03-14T16:43:08.673Z,4.20
2018-03-14T16:45:36.870Z,3.50
2018-03-14T16:48:05.798Z,3.95
2018-03-14T16:50:33.983Z,3.05
2018-03-14T16:53:02.172Z,3.10
2018-03-14T16:55:30.427Z,2.97
2018-03-14T16:57:58.620Z,3.45
2018-03-14T17:00:26.795Z,3.67
2018-03-14T17:02:55.086Z,3.12
2018-03-14T17:05:23.497Z,3.08
2018-03-14T17:07:53.098Z,3.80
2018-03-14T17:10:22.279Z,3.17
2018-03-14T17:12:53.441Z,3.10
2018-03-14T17:15:21.725Z,3.55
2018-03-14T17:17:50.016Z,3.53
2018-03-14T17:20:18.265Z,2.87
2018-03-14T17:22:47.208Z,3.65
2018-03-14T17:25:15.660Z,2.80
2018-03-14T17:27:43.980Z,3.92
2018-03-14T17:30:16.883Z,3.45
2018-03-14T17:32:45.084Z,3.97
2018-03-14T17:35:13.326Z,4.00
2018-03-14T17:37:42.354Z,4.20
2018-03-14T17:40:13.980Z,4.60
2018-03-14T17:42:42.255Z,5.00
2018-03-14T17:45:10.430Z,5.00
2018-03-14T17:47:39.402Z,3.80
2018-03-14T17:50:07.578Z,4.00
2018-03-14T17:52:35.825Z,4.75
2018-03-14T17:55:04.919Z,4.18
2018-03-14T17:57:33.123Z,4.87
2018-03-14T18:00:01.308Z,4.80
2018-03-14T18:02:50.992Z,4.10
2018-03-14T18:05:26.670Z,4.70
2018-03-14T18:07:54.878Z,4.25
2018-03-14T18:10:28.659Z,4.22
2018-03-14T18:12:56.915Z,4.97
2018-03-14T18:15:25.702Z,4.25
2018-03-14T18:17:57.484Z,4.82
2018-03-14T18:20:26.364Z,4.70
2018-03-14T18:22:54.973Z,5.07
2018-03-14T18:25:26.845Z,4.12
2018-03-14T18:27:56.709Z,4.90
2018-03-14T18:30:27.696Z,4.55
2018-03-14T18:32:56.131Z,4.15
2018-03-14T18:35:26.489Z,4.32
2018-03-14T18:37:56.066Z,4.40
2018-03-14T18:40:25.097Z,4.60
2018-03-14T18:42:55.287Z,6.03
2018-03-14T18:45:24.724Z,5.03
2018-03-14T18:47:53.882Z,5.20
2018-03-14T18:50:22.154Z,4.75
2018-03-14T18:52:51.472Z,5.00
2018-03-14T18:55:20.792Z,6.15
2018-03-14T18:57:49.857Z,4.70
2018-03-14T19:00:33.200Z,4.78
2018-03-14T19:03:02.281Z,4.80
2018-03-14T19:05:30.647Z,5.72
2018-03-14T19:08:01.326Z,5.80
2018-03-14T19:10:31.835Z,5.20
2018-03-14T19:13:01.826Z,5.07
2018-03-14T19:15:30.407Z,4.95
2018-03-14T19:18:01.691Z,5.62
2018-03-14T19:20:42.463Z,5.25
2018-03-14T19:23:11.592Z,5.45
2018-03-14T19:25:46.725Z,5.72
2018-03-14T19:28:21.563Z,6.68
2018-03-14T19:30:50.189Z,6.95
2018-03-14T19:33:18.488Z,6.00
2018-03-14T19:35:48.122Z,5.75
2018-03-14T19:38:17.418Z,6.40
2018-03-14T19:40:51.171Z,6.20
2018-03-14T19:45:55.568Z,6.37
2018-03-14T19:48:28.885Z,4.87
2018-03-14T19:51:02.391Z,6.30
2018-03-14T19:53:32.096Z,5.68
2018-03-14T19:56:02.155Z,6.97
2018-03-14T19:58:49.557Z,6.40
2018-03-14T20:01:40.266Z,6.07
2018-03-14T20:04:20.541Z,6.00
2018-03-14T20:06:53.789Z,6.85
2018-03-14T20:09:28.324Z,5.43
2018-03-14T20:12:18.645Z,6.20
2018-03-14T20:15:06.246Z,6.80
2018-03-14T20:17:42.783Z,6.40
2018-03-14T20:20:33.734Z,6.50
2018-03-14T20:28:58.137Z,6.18
2018-03-14T20:31:30.044Z,6.18
2018-03-14T20:34:01.538Z,6.97
2018-03-14T21:27:42.018Z,6.93
2018-03-14T21:30:24.303Z,6.93
2018-03-14T22:01:13.375Z,7.05
2018-03-14T22:03:55.930Z,7.35
2018-03-14T22:06:51.051Z,6.55
2018-03-14T22:12:44.919Z,6.45
2018-03-14T22:15:30.874Z,7.47
2018-03-14T22:21:14.271Z,7.35
2018-03-14T22:26:40.010Z,7.53
2018-03-14T22:29:23.359Z,7.55
2018-03-14T22:35:12.164Z,7.87
2018-03-14T22:38:08.959Z,7.25
2018-03-14T22:40:44.122Z,6.82
2018-03-14T22:43:29.605Z,7.95
2018-03-14T22:46:03.352Z,7.43
2018-03-14T22:48:32.556Z,7.50
2018-03-14T22:51:01.567Z,8.93
2018-03-14T22:53:29.770Z,7.60
2018-03-14T22:55:57.957Z,6.57
2018-03-14T22:58:26.153Z,8.45
2018-03-14T23:00:54.423Z,7.50
2018-03-14T23:03:22.722Z,8.00
2018-03-14T23:05:51.680Z,7.87
2018-03-14T23:08:19.882Z,7.97
2018-03-14T23:10:48.070Z,8.05
2018-03-14T23:13:17.227Z,7.68
2018-03-14T23:15:45.713Z,8.25
2018-03-14T23:18:18.418Z,8.13
2018-03-14T23:20:46.647Z,8.02
2018-03-14T23:23:16.321Z,8.38
2018-03-14T23:25:44.547Z,8.18
2018-03-14T23:28:26.301Z,7.90
2018-03-14T23:30:54.621Z,7.62
2018-03-14T23:33:22.943Z,8.40
2018-03-14T23:35:51.138Z,7.70
2018-03-14T23:38:38.841Z,8.85
2018-03-14T23:41:07.308Z,8.52
2018-03-14T23:43:36.481Z,9.60
2018-03-14T23:46:11.856Z,8.48
2018-03-14T23:51:16.190Z,8.05
2018-03-14T23:53:44.742Z,8.65
2018-03-14T23:56:14.244Z,8.65
